createdAt,value
2023-05-19T00:00:48.564Z,8.61
2023-05-19T00:01:46.922Z,8.58
2023-05-19T00:02:47.102Z,8.55
2023-05-19T00:03:47.227Z,8.52
2023-05-19T00:04:47.311Z,8.49
2023-05-19T00:05:47.815Z,8.46
2023-05-19T00:06:47.667Z,8.43
2023-05-19T00:07:47.697Z,8.39
2023-05-19T00:08:47.835Z,8.35
2023-05-19T00:09:47.965Z,8.31
2023-05-19T00:10:48.090Z,8.28
2023-05-19T00:11:48.242Z,8.25
2023-05-19T00:12:48.381Z,8.22
2023-05-19T00:13:48.541Z,8.20
2023-05-19T00:14:48.691Z,8.19
2023-05-19T00:15:48.950Z,8.18
2023-05-19T00:16:48.942Z,8.18
2023-05-19T00:17:49.118Z,8.17
2023-05-19T00:18:49.237Z,8.16
2023-05-19T00:19:49.319Z,8.15
2023-05-19T00:20:49.440Z,8.13
2023-05-19T00:21:49.553Z,8.11
2023-05-19T00:22:49.744Z,8.09
2023-05-19T00:23:49.780Z,8.07
2023-05-19T00:24:49.918Z,8.04
2023-05-19T00:25:50.110Z,8.02
2023-05-19T00:26:50.248Z,8.00
2023-05-19T00:27:50.353Z,7.98
2023-05-19T00:28:50.441Z,7.95
2023-05-19T00:29:50.581Z,7.93
2023-05-19T00:30:50.710Z,7.90
2023-05-19T00:31:50.916Z,7.89
2023-05-19T00:32:51.019Z,7.87
2023-05-19T00:33:51.130Z,7.86
2023-05-19T00:34:51.275Z,7.85
2023-05-19T00:35:51.492Z,7.84
2023-05-19T00:36:51.541Z,7.82
2023-05-19T00:37:51.575Z,7.80
2023-05-19T00:38:51.727Z,7.78
2023-05-19T00:39:51.866Z,7.76
2023-05-19T00:40:52.002Z,7.75
2023-05-19T00:41:52.114Z,7.73
2023-05-19T00:42:52.285Z,7.72
2023-05-19T00:43:52.361Z,7.71
2023-05-19T00:44:52.506Z,7.70
2023-05-19T00:45:52.590Z,7.69
2023-05-19T00:46:52.823Z,7.68
2023-05-19T00:47:52.903Z,7.67
2023-05-19T00:48:52.979Z,7.65
2023-05-19T00:49:53.111Z,7.64
2023-05-19T00:50:53.227Z,7.62
2023-05-19T00:51:53.418Z,7.61
2023-05-19T00:52:53.514Z,7.59
2023-05-19T00:53:53.664Z,7.57
2023-05-19T00:54:53.758Z,7.55
2023-05-19T00:55:53.886Z,7.54
2023-05-19T00:56:53.993Z,7.52
2023-05-19T00:57:54.173Z,7.50
2023-05-19T00:58:54.249Z,7.49
2023-05-19T00:59:54.356Z,7.48
2023-05-19T01:00:54.548Z,7.46
2023-05-19T01:01:54.617Z,7.45
2023-05-19T01:02:54.829Z,7.43
2023-05-19T01:03:54.921Z,7.41
2023-05-19T01:04:54.989Z,7.39
2023-05-19T01:05:55.030Z,7.38
2023-05-19T01:06:55.216Z,7.36
2023-05-19T01:07:55.410Z,7.35
2023-05-19T01:08:55.432Z,7.34
2023-05-19T01:09:55.571Z,7.32
2023-05-19T01:10:55.718Z,7.30
2023-05-19T01:11:55.852Z,7.28
2023-05-19T01:12:55.997Z,7.25
2023-05-19T01:13:56.160Z,7.22
2023-05-19T01:14:56.305Z,7.19
2023-05-19T01:15:56.518Z,7.17
2023-05-19T01:16:56.659Z,7.15
2023-05-19T01:17:56.770Z,7.12
2023-05-19T01:18:56.880Z,7.09
2023-05-19T01:19:56.959Z,7.04
2023-05-19T01:20:57.071Z,7.00
2023-05-19T01:21:57.182Z,6.96
2023-05-19T01:22:57.312Z,6.92
2023-05-19T01:23:57.477Z,6.89
2023-05-19T01:24:57.628Z,6.87
2023-05-19T01:25:57.695Z,6.84
2023-05-19T01:26:57.842Z,6.82
2023-05-19T01:27:57.986Z,6.79
2023-05-19T01:28:58.148Z,6.77
2023-05-19T01:29:58.271Z,6.75
2023-05-19T01:30:58.369Z,6.73
2023-05-19T01:31:58.565Z,6.72
2023-05-19T01:32:58.689Z,6.70
2023-05-19T01:33:58.797Z,6.68
2023-05-19T01:34:58.891Z,6.66
2023-05-19T01:35:59.078Z,6.65
2023-05-19T01:36:59.163Z,6.65
2023-05-19T01:37:59.426Z,6.64
2023-05-19T01:38:59.486Z,6.64
2023-05-19T01:39:59.543Z,6.62
2023-05-19T01:40:59.698Z,6.61
2023-05-19T01:41:59.816Z,6.59
2023-05-19T01:43:00.030Z,6.59
2023-05-19T01:44:00.120Z,6.58
2023-05-19T01:45:00.244Z,6.58
2023-05-19T01:46:00.364Z,6.58
2023-05-19T01:47:00.428Z,6.58
2023-05-19T01:48:00.567Z,6.58
2023-05-19T01:49:00.745Z,6.59
2023-05-19T01:50:00.873Z,6.59
2023-05-19T01:51:00.982Z,6.59
2023-05-19T01:52:01.098Z,6.59
2023-05-19T01:53:01.238Z,6.58
2023-05-19T01:54:01.436Z,6.58
2023-05-19T01:55:01.512Z,6.58
2023-05-19T01:56:01.687Z,6.57
2023-05-19T01:57:01.732Z,6.57
2023-05-19T01:58:01.874Z,6.58
2023-05-19T01:59:02.006Z,6.58
2023-05-19T02:00:02.218Z,6.59
2023-05-19T02:01:02.305Z,6.60
2023-05-19T02:02:02.435Z,6.60
2023-05-19T02:03:02.590Z,6.60
2023-05-19T02:04:02.776Z,6.60
2023-05-19T02:05:02.887Z,6.59
2023-05-19T02:06:03.020Z,6.58
2023-05-19T02:07:03.082Z,6.58
2023-05-19T02:08:03.230Z,6.57
2023-05-19T02:09:03.402Z,6.56
2023-05-19T02:10:03.517Z,6.56
2023-05-19T02:11:03.648Z,6.55
2023-05-19T02:12:03.746Z,6.54
2023-05-19T02:13:03.890Z,6.54
2023-05-19T02:14:04.042Z,6.54
2023-05-19T02:15:04.133Z,6.54
2023-05-19T02:16:04.470Z,6.55
2023-05-19T02:17:04.408Z,6.55
2023-05-19T02:18:04.690Z,6.55
2023-05-19T02:19:04.696Z,6.55
2023-05-19T02:20:04.786Z,6.55
2023-05-19T02:21:04.894Z,6.55
2023-05-19T02:22:05.000Z,6.54
2023-05-19T02:23:05.150Z,6.54
2023-05-19T02:24:05.248Z,6.53
2023-05-19T02:25:05.394Z,6.52
2023-05-19T02:26:05.728Z,6.51
2023-05-19T02:27:05.646Z,6.49
2023-05-19T02:28:05.743Z,6.47
2023-05-19T02:29:05.861Z,6.45
2023-05-19T02:30:09.503Z,6.43
2023-05-19T02:31:06.088Z,6.41
2023-05-19T02:32:06.289Z,6.38
2023-05-19T02:33:06.356Z,6.35
2023-05-19T02:34:06.413Z,6.32
2023-05-19T02:35:06.583Z,6.29
2023-05-19T02:36:06.763Z,6.25
2023-05-19T02:37:06.871Z,6.22
2023-05-19T02:38:06.920Z,6.19
2023-05-19T02:39:07.083Z,6.17
2023-05-19T02:40:07.187Z,6.14
2023-05-19T02:41:07.290Z,6.13
2023-05-19T02:42:07.518Z,6.11
2023-05-19T02:43:07.602Z,6.09
2023-05-19T02:44:07.755Z,6.08
2023-05-19T02:45:07.837Z,6.07
2023-05-19T02:46:08.030Z,6.05
2023-05-19T02:47:08.644Z,6.03
2023-05-19T02:48:08.345Z,6.00
2023-05-19T02:49:08.433Z,5.96
2023-05-19T02:50:08.503Z,5.92
2023-05-19T02:51:08.656Z,5.88
2023-05-19T02:52:08.779Z,5.85
2023-05-19T02:53:08.913Z,5.82
2023-05-19T02:54:09.055Z,5.80
2023-05-19T02:55:09.193Z,5.78
2023-05-19T02:56:10.357Z,5.76
2023-05-19T02:57:09.435Z,5.74
2023-05-19T02:58:09.608Z,5.71
2023-05-19T02:59:09.693Z,5.69
2023-05-19T03:00:09.877Z,5.68
2023-05-19T03:01:09.985Z,5.68
2023-05-19T03:02:10.187Z,5.68
2023-05-19T03:03:10.322Z,5.68
2023-05-19T03:04:10.373Z,5.68
2023-05-19T03:05:10.426Z,5.69
2023-05-19T03:06:10.593Z,5.70
2023-05-19T03:07:10.691Z,5.71
2023-05-19T03:08:10.880Z,5.72
2023-05-19T03:09:11.001Z,5.73
2023-05-19T03:10:11.116Z,5.74
2023-05-19T03:11:11.268Z,5.74
2023-05-19T03:12:11.304Z,5.75
2023-05-19T03:13:11.440Z,5.75
2023-05-19T03:14:11.571Z,5.75
2023-05-19T03:15:11.687Z,5.75
2023-05-19T03:16:11.978Z,5.75
2023-05-19T03:17:11.988Z,5.74
2023-05-19T03:18:12.172Z,5.74
2023-05-19T03:19:12.270Z,5.74
2023-05-19T03:20:12.381Z,5.73
2023-05-19T03:21:12.526Z,5.73
2023-05-19T03:22:12.682Z,5.73
2023-05-19T03:23:12.791Z,5.72
2023-05-19T03:24:12.912Z,5.72
2023-05-19T03:25:13.072Z,5.72
2023-05-19T03:26:13.140Z,5.71
2023-05-19T03:27:13.269Z,5.71
2023-05-19T03:28:13.393Z,5.71
2023-05-19T03:29:13.491Z,5.70
2023-05-19T03:30:13.682Z,5.67
2023-05-19T03:31:13.764Z,5.64
2023-05-19T03:32:13.975Z,5.62
2023-05-19T03:33:14.454Z,5.60
2023-05-19T03:34:14.163Z,5.57
2023-05-19T03:35:14.355Z,5.55
2023-05-19T03:36:14.529Z,5.53
2023-05-19T03:37:14.569Z,5.50
2023-05-19T03:38:14.680Z,5.48
2023-05-19T03:39:14.893Z,5.46
2023-05-19T03:40:14.955Z,5.45
2023-05-19T03:41:15.034Z,5.43
2023-05-19T03:42:15.186Z,5.42
2023-05-19T03:43:15.311Z,5.41
2023-05-19T03:44:15.505Z,5.41
2023-05-19T03:45:15.642Z,5.41
2023-05-19T03:46:15.792Z,5.40
2023-05-19T03:47:15.860Z,5.40
2023-05-19T03:48:15.986Z,5.41
2023-05-19T03:49:16.116Z,5.41
2023-05-19T03:50:16.297Z,5.41
2023-05-19T03:51:16.438Z,5.42
2023-05-19T03:52:16.523Z,5.42
2023-05-19T03:53:16.670Z,5.43
2023-05-19T03:54:16.803Z,5.44
2023-05-19T03:55:17.343Z,5.45
2023-05-19T03:56:17.144Z,5.46
2023-05-19T03:57:17.164Z,5.46
2023-05-19T03:58:17.287Z,5.47
2023-05-19T03:59:17.428Z,5.47
2023-05-19T04:00:17.576Z,5.47
2023-05-19T04:01:17.688Z,5.47
2023-05-19T04:02:17.838Z,5.46
2023-05-19T04:03:18.041Z,5.46
2023-05-19T04:04:18.095Z,5.45
2023-05-19T04:05:18.167Z,5.45
2023-05-19T04:06:18.331Z,5.45
2023-05-19T04:07:18.453Z,5.44
2023-05-19T04:08:18.647Z,5.44
2023-05-19T04:09:18.704Z,5.44
2023-05-19T04:10:18.850Z,5.44
2023-05-19T04:11:18.937Z,5.43
2023-05-19T04:12:19.094Z,5.42
2023-05-19T04:13:19.228Z,5.42
2023-05-19T04:14:19.380Z,5.42
2023-05-19T04:15:19.504Z,5.42
2023-05-19T04:16:19.718Z,5.43
2023-05-19T04:17:19.797Z,5.45
2023-05-19T04:18:19.873Z,5.46
2023-05-19T04:19:20.042Z,5.47
2023-05-19T04:20:20.159Z,5.49
2023-05-19T04:21:20.283Z,5.51
2023-05-19T04:22:20.463Z,5.52
2023-05-19T04:23:20.565Z,5.53
2023-05-19T04:24:20.711Z,5.55
2023-05-19T04:25:20.843Z,5.57
2023-05-19T04:26:20.988Z,5.58
2023-05-19T04:27:21.130Z,5.60
2023-05-19T04:28:21.255Z,5.61
2023-05-19T04:29:21.386Z,5.62
2023-05-19T04:30:21.528Z,5.63
2023-05-19T04:31:21.876Z,5.64
2023-05-19T04:32:21.797Z,5.66
2023-05-19T04:33:21.934Z,5.67
2023-05-19T04:34:22.091Z,5.68
2023-05-19T04:35:22.166Z,5.70
2023-05-19T04:36:22.406Z,5.71
2023-05-19T04:37:22.475Z,5.73
2023-05-19T04:38:22.626Z,5.74
2023-05-19T04:39:22.698Z,5.76
2023-05-19T04:40:22.852Z,5.78
2023-05-19T04:41:23.036Z,5.80
2023-05-19T04:42:23.129Z,5.83
2023-05-19T04:43:23.357Z,5.85
2023-05-19T04:44:23.466Z,5.87
2023-05-19T04:45:23.531Z,5.90
2023-05-19T04:46:23.801Z,5.93
2023-05-19T04:47:24.036Z,5.96
2023-05-19T04:48:24.011Z,5.99
2023-05-19T04:49:24.097Z,6.01
2023-05-19T04:50:24.178Z,6.04
2023-05-19T04:51:24.331Z,6.06
2023-05-19T04:52:24.451Z,6.09
2023-05-19T04:53:24.624Z,6.11
2023-05-19T04:54:24.714Z,6.14
2023-05-19T04:55:24.872Z,6.17
2023-05-19T04:56:25.129Z,6.20
2023-05-19T04:57:25.144Z,6.24
2023-05-19T04:58:25.321Z,6.28
2023-05-19T04:59:25.362Z,6.31
2023-05-19T05:00:25.532Z,6.35
2023-05-19T05:01:25.623Z,6.37
2023-05-19T05:02:25.848Z,6.40
2023-05-19T05:03:26.008Z,6.44
2023-05-19T05:04:26.008Z,6.47
2023-05-19T05:05:26.101Z,6.50
2023-05-19T05:06:26.238Z,6.54
2023-05-19T05:07:26.375Z,6.57
2023-05-19T05:08:26.648Z,6.60
2023-05-19T05:09:26.652Z,6.64
2023-05-19T05:10:26.752Z,6.68
2023-05-19T05:11:26.916Z,6.74
2023-05-19T05:12:27.020Z,6.80
2023-05-19T05:13:27.152Z,6.88
2023-05-19T05:14:27.253Z,6.98
2023-05-19T05:15:27.393Z,7.09
2023-05-19T05:16:27.665Z,7.22
2023-05-19T05:17:27.708Z,7.34
2023-05-19T05:18:27.794Z,7.47
2023-05-19T05:19:28.002Z,7.59
2023-05-19T05:20:28.088Z,7.70
2023-05-19T05:21:28.153Z,7.80
2023-05-19T05:22:28.420Z,7.90
2023-05-19T05:23:28.483Z,7.99
2023-05-19T05:24:28.596Z,8.04
2023-05-19T05:25:28.694Z,8.08
2023-05-19T05:26:28.829Z,8.10
2023-05-19T05:27:29.014Z,8.14
2023-05-19T05:28:29.112Z,8.18
2023-05-19T05:29:29.259Z,8.21
2023-05-19T05:30:29.372Z,8.21
2023-05-19T05:31:29.554Z,8.22
2023-05-19T05:32:29.800Z,8.23
2023-05-19T05:33:29.811Z,8.28
2023-05-19T05:34:29.894Z,8.36
2023-05-19T05:35:30.147Z,8.46
2023-05-19T05:36:30.298Z,8.58
2023-05-19T05:37:30.332Z,8.71
2023-05-19T05:38:30.478Z,8.86
2023-05-19T05:39:30.633Z,9.00
2023-05-19T05:40:30.760Z,9.11
2023-05-19T05:41:30.866Z,9.20
2023-05-19T05:42:30.993Z,9.25
2023-05-19T05:43:31.126Z,9.28
2023-05-19T05:44:31.266Z,9.30
2023-05-19T05:45:31.637Z,9.33
2023-05-19T05:46:31.618Z,9.36
2023-05-19T05:47:31.736Z,9.38
2023-05-19T05:48:31.840Z,9.40
2023-05-19T05:49:31.974Z,9.44
2023-05-19T05:50:32.171Z,9.48
2023-05-19T05:51:32.291Z,9.54
2023-05-19T05:52:32.370Z,9.65
2023-05-19T05:53:32.596Z,9.79
2023-05-19T05:54:32.672Z,9.93
2023-05-19T05:55:33.025Z,10.06
2023-05-19T05:56:32.985Z,10.20
2023-05-19T05:57:33.040Z,10.35
2023-05-19T05:58:33.119Z,10.52
2023-05-19T05:59:33.229Z,10.69
2023-05-19T06:00:33.506Z,10.85
2023-05-19T06:01:35.513Z,10.99
2023-05-19T06:02:33.581Z,11.12
2023-05-19T06:03:33.783Z,11.24
2023-05-19T06:04:33.766Z,11.32
2023-05-19T06:05:33.940Z,11.37
2023-05-19T06:06:34.033Z,11.40
2023-05-19T06:07:34.133Z,11.41
2023-05-19T06:08:34.408Z,11.42
2023-05-19T06:09:34.374Z,11.44
2023-05-19T06:10:34.735Z,11.49
2023-05-19T06:11:34.648Z,11.56
2023-05-19T06:12:34.783Z,11.64
2023-05-19T06:13:34.889Z,11.72
2023-05-19T06:14:35.012Z,11.81
2023-05-19T06:15:35.141Z,11.88
2023-05-19T06:16:35.544Z,11.96
2023-05-19T06:17:35.438Z,12.07
2023-05-19T06:18:35.488Z,12.19
2023-05-19T06:19:35.657Z,12.31
2023-05-19T06:20:36.050Z,12.44
2023-05-19T06:21:35.881Z,12.58
2023-05-19T06:22:36.025Z,12.73
2023-05-19T06:23:36.162Z,12.89
2023-05-19T06:24:37.872Z,13.03
2023-05-19T06:25:36.410Z,13.15
2023-05-19T06:26:36.508Z,13.25
2023-05-19T06:27:36.623Z,13.34
2023-05-19T06:28:36.731Z,13.43
2023-05-19T06:29:36.921Z,13.51
2023-05-19T06:30:37.010Z,13.58
2023-05-19T06:31:37.175Z,13.63
2023-05-19T06:32:37.273Z,13.64
2023-05-19T06:33:37.356Z,13.67
2023-05-19T06:34:37.481Z,13.74
2023-05-19T06:35:37.555Z,13.82
2023-05-19T06:36:37.781Z,13.89
2023-05-19T06:37:37.819Z,13.95
2023-05-19T06:38:37.927Z,14.03
2023-05-19T06:39:38.017Z,14.14
2023-05-19T06:40:38.120Z,14.27
2023-05-19T06:41:38.298Z,14.39
2023-05-19T06:42:38.409Z,14.51
2023-05-19T06:43:38.525Z,14.63
2023-05-19T06:44:38.655Z,14.71
2023-05-19T06:45:38.752Z,14.76
2023-05-19T06:46:38.900Z,14.80
2023-05-19T06:47:39.103Z,14.85
2023-05-19T06:48:39.120Z,14.92
2023-05-19T06:49:39.233Z,14.99
2023-05-19T06:50:39.333Z,15.06
2023-05-19T06:51:39.498Z,15.15
2023-05-19T06:52:39.603Z,15.21
2023-05-19T06:53:39.751Z,15.26
2023-05-19T06:54:39.856Z,15.33
2023-05-19T06:55:54.315Z,15.41
2023-05-19T06:56:41.163Z,15.50
2023-05-19T06:57:40.270Z,15.57
2023-05-19T06:58:40.321Z,15.60
2023-05-19T06:59:40.410Z,15.64
2023-05-19T07:00:40.508Z,15.69
2023-05-19T07:01:40.647Z,15.76
2023-05-19T07:02:40.841Z,15.82
2023-05-19T07:03:41.054Z,15.90
2023-05-19T07:04:41.073Z,15.99
2023-05-19T07:05:41.150Z,16.04
2023-05-19T07:06:41.495Z,16.01
2023-05-19T07:07:41.469Z,15.87
2023-05-19T07:08:41.506Z,15.72
2023-05-19T07:09:41.615Z,15.68
2023-05-19T07:10:41.734Z,15.74
2023-05-19T07:11:41.850Z,15.83
2023-05-19T07:12:41.952Z,15.92
2023-05-19T07:13:42.112Z,16.04
2023-05-19T07:14:42.216Z,16.17
2023-05-19T07:15:42.416Z,16.29
2023-05-19T07:16:42.639Z,16.39
2023-05-19T07:17:42.658Z,16.44
2023-05-19T07:18:42.853Z,16.45
2023-05-19T07:19:42.871Z,16.46
2023-05-19T07:20:42.994Z,16.49
2023-05-19T07:21:43.154Z,16.52
2023-05-19T07:22:43.301Z,16.57
2023-05-19T07:23:43.423Z,16.64
2023-05-19T07:24:43.523Z,16.72
2023-05-19T07:25:43.652Z,16.80
2023-05-19T07:26:43.840Z,16.90
2023-05-19T07:27:43.933Z,16.99
2023-05-19T07:28:44.060Z,17.06
2023-05-19T07:29:44.162Z,17.14
2023-05-19T07:30:44.724Z,17.20
2023-05-19T07:31:44.431Z,17.21
2023-05-19T07:32:44.543Z,17.17
2023-05-19T07:33:44.671Z,17.12
2023-05-19T07:34:44.782Z,17.05
2023-05-19T07:35:44.879Z,16.94
2023-05-19T07:36:47.265Z,16.86
2023-05-19T07:37:45.172Z,16.88
2023-05-19T07:38:45.295Z,16.97
2023-05-19T07:39:45.409Z,17.12
2023-05-19T07:40:45.523Z,17.27
2023-05-19T07:41:45.623Z,17.37
2023-05-19T07:42:45.738Z,17.46
2023-05-19T07:43:47.143Z,17.59
2023-05-19T07:44:45.953Z,17.72
2023-05-19T07:45:46.142Z,17.84
2023-05-19T07:46:46.255Z,17.93
2023-05-19T07:47:46.367Z,17.98
2023-05-19T07:48:46.472Z,18.02
2023-05-19T07:49:46.604Z,18.08
2023-05-19T07:50:46.785Z,18.16
2023-05-19T07:51:46.865Z,18.25
2023-05-19T07:52:46.956Z,18.34
2023-05-19T07:53:47.114Z,18.40
2023-05-19T07:54:47.267Z,18.45
2023-05-19T07:55:47.405Z,18.50
2023-05-19T07:56:47.592Z,18.51
2023-05-19T07:57:47.627Z,18.37
2023-05-19T07:58:47.727Z,18.15
2023-05-19T07:59:47.876Z,17.97
2023-05-19T08:00:48.083Z,17.82
2023-05-19T08:01:48.171Z,17.72
2023-05-19T08:02:48.500Z,17.71
2023-05-19T08:03:48.488Z,17.70
2023-05-19T08:04:48.602Z,17.68
2023-05-19T08:05:48.738Z,17.70
2023-05-19T08:06:48.845Z,17.74
2023-05-19T08:07:48.935Z,17.80
2023-05-19T08:08:49.068Z,17.88
2023-05-19T08:09:49.163Z,17.91
2023-05-19T08:10:49.259Z,17.93
2023-05-19T08:11:49.413Z,18.03
2023-05-19T08:12:49.503Z,18.16
2023-05-19T08:13:49.647Z,18.26
2023-05-19T08:14:49.788Z,18.34
2023-05-19T08:15:50.010Z,18.40
2023-05-19T08:16:50.131Z,18.49
2023-05-19T08:17:50.206Z,18.61
2023-05-19T08:18:50.278Z,18.75
2023-05-19T08:19:50.419Z,18.83
2023-05-19T08:20:50.528Z,18.77
2023-05-19T08:21:50.701Z,18.69
2023-05-19T08:22:50.752Z,18.58
2023-05-19T08:23:50.927Z,18.45
2023-05-19T08:24:51.246Z,18.40
2023-05-19T08:25:51.132Z,18.40
2023-05-19T08:26:51.308Z,18.45
2023-05-19T08:27:51.446Z,18.55
2023-05-19T08:28:51.568Z,18.64
2023-05-19T08:29:51.662Z,18.75
2023-05-19T08:30:51.773Z,18.87
2023-05-19T08:31:51.904Z,18.87
2023-05-19T08:32:52.060Z,18.82
2023-05-19T08:33:52.232Z,18.79
2023-05-19T08:34:52.282Z,18.69
2023-05-19T08:35:52.366Z,18.58
2023-05-19T08:36:52.585Z,18.56
2023-05-19T08:37:52.659Z,18.59
2023-05-19T08:38:52.792Z,18.65
2023-05-19T08:39:52.901Z,18.74
2023-05-19T08:40:53.022Z,18.86
2023-05-19T08:41:53.234Z,19.00
2023-05-19T08:42:53.276Z,19.14
2023-05-19T08:43:53.381Z,19.23
2023-05-19T08:44:53.481Z,19.28
2023-05-19T08:45:53.641Z,19.25
2023-05-19T08:46:53.773Z,19.23
2023-05-19T08:47:54.028Z,19.27
2023-05-19T08:48:53.961Z,19.34
2023-05-19T08:49:54.064Z,19.39
2023-05-19T08:50:54.171Z,19.31
2023-05-19T08:51:54.288Z,19.14
2023-05-19T08:52:54.411Z,19.02
2023-05-19T08:53:54.547Z,18.95
2023-05-19T08:54:54.654Z,18.98
2023-05-19T08:55:54.763Z,19.11
2023-05-19T08:56:54.963Z,19.28
2023-05-19T08:57:55.008Z,19.44
2023-05-19T08:58:55.183Z,19.58
2023-05-19T08:59:55.266Z,19.62
2023-05-19T09:00:55.391Z,19.49
2023-05-19T09:01:55.561Z,19.24
2023-05-19T09:03:00.946Z,19.05
2023-05-19T09:03:56.831Z,19.00
2023-05-19T09:04:55.872Z,18.99
2023-05-19T09:05:55.999Z,19.01
2023-05-19T09:06:56.087Z,19.05
2023-05-19T09:07:56.197Z,19.02
2023-05-19T09:08:56.359Z,18.95
2023-05-19T09:09:56.447Z,18.95
2023-05-19T09:10:56.564Z,19.02
2023-05-19T09:11:56.697Z,19.03
2023-05-19T09:12:56.806Z,19.04
2023-05-19T09:13:56.974Z,19.08
2023-05-19T09:14:57.098Z,19.14
2023-05-19T09:15:57.226Z,19.20
2023-05-19T09:16:57.425Z,19.26
2023-05-19T09:17:57.451Z,19.29
2023-05-19T09:18:57.592Z,19.27
2023-05-19T09:19:57.687Z,19.26
2023-05-19T09:20:57.768Z,19.28
2023-05-19T09:21:57.907Z,19.25
2023-05-19T09:22:58.000Z,19.20
2023-05-19T09:23:58.171Z,19.23
2023-05-19T09:24:58.342Z,19.35
2023-05-19T09:25:58.471Z,19.39
2023-05-19T09:27:00.224Z,19.39
2023-05-19T09:27:58.733Z,19.37
2023-05-19T09:28:58.840Z,19.36
2023-05-19T09:29:58.981Z,19.43
2023-05-19T09:30:59.056Z,19.53
2023-05-19T09:31:59.226Z,19.63
2023-05-19T09:32:59.337Z,19.69
2023-05-19T09:33:59.461Z,19.64
2023-05-19T09:34:59.592Z,19.55
2023-05-19T09:35:59.751Z,19.49
2023-05-19T09:37:00.033Z,19.41
2023-05-19T09:37:59.990Z,19.33
2023-05-19T09:39:00.131Z,19.26
2023-05-19T09:40:00.581Z,19.19
2023-05-19T09:41:00.347Z,19.20
2023-05-19T09:42:00.490Z,19.29
2023-05-19T09:43:00.581Z,19.42
2023-05-19T09:44:00.715Z,19.49
2023-05-19T09:45:00.874Z,19.47
2023-05-19T09:46:00.971Z,19.46
2023-05-19T09:47:01.067Z,19.54
2023-05-19T09:48:01.240Z,19.69
2023-05-19T09:49:01.309Z,19.76
2023-05-19T09:50:01.422Z,19.68
2023-05-19T09:51:01.550Z,19.60
2023-05-19T09:52:01.676Z,19.61
2023-05-19T09:53:01.784Z,19.64
2023-05-19T09:54:01.969Z,19.69
2023-05-19T09:55:02.053Z,19.77
2023-05-19T09:56:02.163Z,19.86
2023-05-19T09:57:02.344Z,19.91
2023-05-19T09:58:02.400Z,19.94
2023-05-19T09:59:02.566Z,19.91
2023-05-19T10:00:02.689Z,19.86
2023-05-19T10:01:02.812Z,19.78
2023-05-19T10:02:03.286Z,19.73
2023-05-19T10:03:03.062Z,19.74
2023-05-19T10:04:03.892Z,19.75
2023-05-19T10:05:03.312Z,19.74
2023-05-19T10:06:03.349Z,19.71
2023-05-19T10:07:03.575Z,19.68
2023-05-19T10:08:03.578Z,19.61
2023-05-19T10:09:03.677Z,19.54
2023-05-19T10:10:03.818Z,19.52
2023-05-19T10:11:03.907Z,19.56
2023-05-19T10:12:04.055Z,19.57
2023-05-19T10:13:04.171Z,19.58
2023-05-19T10:14:04.503Z,19.63
2023-05-19T10:15:04.407Z,19.67
2023-05-19T10:16:04.642Z,19.67
2023-05-19T10:17:04.842Z,19.61
2023-05-19T10:18:04.776Z,19.49
2023-05-19T10:19:04.926Z,19.42
2023-05-19T10:20:05.021Z,19.43
2023-05-19T10:21:05.200Z,19.47
2023-05-19T10:22:05.268Z,19.54
2023-05-19T10:23:05.400Z,19.56
2023-05-19T10:24:05.532Z,19.49
2023-05-19T10:25:05.647Z,19.37
2023-05-19T10:26:05.801Z,19.27
2023-05-19T10:27:05.889Z,19.32
2023-05-19T10:28:05.996Z,19.40
2023-05-19T10:29:06.093Z,19.34
2023-05-19T10:30:06.207Z,19.20
2023-05-19T10:31:06.299Z,19.13
2023-05-19T10:32:06.527Z,19.15
2023-05-19T10:33:06.640Z,19.12
2023-05-19T10:34:06.724Z,19.07
2023-05-19T10:35:06.824Z,19.06
2023-05-19T10:36:06.934Z,19.09
2023-05-19T10:37:07.120Z,19.06
2023-05-19T10:38:07.397Z,18.92
2023-05-19T10:39:07.409Z,18.77
2023-05-19T10:40:07.458Z,18.69
2023-05-19T10:41:07.597Z,18.62
2023-05-19T10:42:07.736Z,18.60
2023-05-19T10:43:07.927Z,18.65
2023-05-19T10:44:07.976Z,18.69
2023-05-19T10:45:08.078Z,18.73
2023-05-19T10:46:08.193Z,18.82
2023-05-19T10:47:08.347Z,18.94
2023-05-19T10:48:08.531Z,19.06
2023-05-19T10:49:08.586Z,19.22
2023-05-19T10:50:08.693Z,19.42
2023-05-19T10:51:08.840Z,19.62
2023-05-19T10:52:08.939Z,19.80
2023-05-19T10:53:09.122Z,19.98
2023-05-19T10:54:10.343Z,20.09
2023-05-19T10:55:09.260Z,20.14
2023-05-19T10:56:09.354Z,20.17
2023-05-19T10:57:09.621Z,20.22
2023-05-19T10:58:09.661Z,20.33
2023-05-19T10:59:09.810Z,20.48
2023-05-19T11:00:09.910Z,20.62
2023-05-19T11:01:10.032Z,20.74
2023-05-19T11:02:10.195Z,20.67
2023-05-19T11:03:10.334Z,20.44
2023-05-19T11:04:10.489Z,20.20
2023-05-19T11:05:10.534Z,20.06
2023-05-19T11:06:10.612Z,20.02
2023-05-19T11:07:10.718Z,19.99
2023-05-19T11:08:10.829Z,20.00
2023-05-19T11:09:10.978Z,20.05
2023-05-19T11:10:11.087Z,20.10
2023-05-19T11:11:11.187Z,20.12
2023-05-19T11:12:11.304Z,20.13
2023-05-19T11:13:11.411Z,20.05
2023-05-19T11:14:11.588Z,19.96
2023-05-19T11:15:11.654Z,19.94
2023-05-19T11:16:11.762Z,20.02
2023-05-19T11:17:12.000Z,20.18
2023-05-19T11:18:12.079Z,20.36
2023-05-19T11:19:12.175Z,20.54
2023-05-19T11:20:12.278Z,20.71
2023-05-19T11:21:12.388Z,20.83
2023-05-19T11:22:12.538Z,20.88
2023-05-19T11:23:12.711Z,20.82
2023-05-19T11:24:12.802Z,20.65
2023-05-19T11:25:12.922Z,20.48
2023-05-19T11:26:13.040Z,20.40
2023-05-19T11:27:13.143Z,20.40
2023-05-19T11:28:13.312Z,20.38
2023-05-19T11:29:13.408Z,20.38
2023-05-19T11:30:13.716Z,20.38
2023-05-19T11:31:13.643Z,20.32
2023-05-19T11:32:13.887Z,20.18
2023-05-19T11:33:14.004Z,20.05
2023-05-19T11:34:14.056Z,20.03
2023-05-19T11:35:14.202Z,20.05
2023-05-19T11:36:14.298Z,20.12
2023-05-19T11:37:14.518Z,20.24
2023-05-19T11:38:14.562Z,20.31
2023-05-19T11:39:14.670Z,20.35
2023-05-19T11:40:14.812Z,20.41
2023-05-19T11:41:14.884Z,20.43
2023-05-19T11:42:15.017Z,20.42
2023-05-19T11:43:15.121Z,20.37
2023-05-19T11:44:15.243Z,20.34
2023-05-19T11:45:15.491Z,20.42
2023-05-19T11:46:15.628Z,20.52
2023-05-19T11:47:15.547Z,20.56
2023-05-19T11:48:15.705Z,20.48
2023-05-19T11:49:15.791Z,20.38
2023-05-19T11:50:15.898Z,20.40
2023-05-19T11:51:16.024Z,20.52
2023-05-19T11:52:16.134Z,20.66
2023-05-19T11:53:16.241Z,20.79
2023-05-19T11:54:16.353Z,20.87
2023-05-19T11:55:16.453Z,20.91
2023-05-19T11:56:16.644Z,20.94
2023-05-19T11:57:16.864Z,20.88
2023-05-19T11:58:17.192Z,20.73
2023-05-19T11:59:17.001Z,20.46
2023-05-19T12:00:17.090Z,20.12
2023-05-19T12:01:17.291Z,19.79
2023-05-19T12:02:17.385Z,19.56
2023-05-19T12:03:17.815Z,19.50
2023-05-19T12:04:17.658Z,19.59
2023-05-19T12:05:17.835Z,19.70
2023-05-19T12:06:17.922Z,19.78
2023-05-19T12:07:18.050Z,19.86
2023-05-19T12:08:18.203Z,19.94
2023-05-19T12:09:18.300Z,20.03
2023-05-19T12:10:18.457Z,20.12
2023-05-19T12:11:19.985Z,20.18
2023-05-19T12:12:18.657Z,20.22
2023-05-19T12:13:18.817Z,20.32
2023-05-19T12:14:18.917Z,20.47
2023-05-19T12:15:19.028Z,20.62
2023-05-19T12:16:19.214Z,20.66
2023-05-19T12:17:19.276Z,20.59
2023-05-19T12:18:19.339Z,20.52
2023-05-19T12:19:19.479Z,20.53
2023-05-19T12:20:19.596Z,20.61
2023-05-19T12:21:19.721Z,20.72
2023-05-19T12:22:19.837Z,20.83
2023-05-19T12:23:19.945Z,20.92
2023-05-19T12:24:20.048Z,21.00
2023-05-19T12:25:20.193Z,21.10
2023-05-19T12:26:20.257Z,21.23
2023-05-19T12:27:20.378Z,21.32
2023-05-19T12:28:20.510Z,21.34
2023-05-19T12:29:20.645Z,21.36
2023-05-19T12:30:20.750Z,21.30
2023-05-19T12:31:20.880Z,21.23
2023-05-19T12:32:20.968Z,21.22
2023-05-19T12:33:21.104Z,21.26
2023-05-19T12:34:21.194Z,21.35
2023-05-19T12:35:21.309Z,21.42
2023-05-19T12:36:21.404Z,21.39
2023-05-19T12:37:21.648Z,21.23
2023-05-19T12:38:21.748Z,21.06
2023-05-19T12:39:21.840Z,20.91
2023-05-19T12:40:21.981Z,20.74
2023-05-19T12:41:22.090Z,20.60
2023-05-19T12:42:22.194Z,20.51
2023-05-19T12:43:22.348Z,20.51
2023-05-19T12:44:22.422Z,20.55
2023-05-19T12:45:22.549Z,20.56
2023-05-19T12:46:22.961Z,20.51
2023-05-19T12:47:22.765Z,20.40
2023-05-19T12:48:22.829Z,20.30
2023-05-19T12:49:22.956Z,20.24
2023-05-19T12:50:23.067Z,20.17
2023-05-19T12:51:23.189Z,20.13
2023-05-19T12:52:23.333Z,20.19
2023-05-19T12:53:23.470Z,20.27
2023-05-19T12:54:23.577Z,20.38
2023-05-19T12:55:23.663Z,20.55
2023-05-19T12:56:23.762Z,20.78
2023-05-19T12:57:23.992Z,20.94
2023-05-19T12:58:23.983Z,21.05
2023-05-19T12:59:37.208Z,21.20
2023-05-19T13:00:25.271Z,21.39
2023-05-19T13:01:24.476Z,21.55
2023-05-19T13:02:24.546Z,21.63
2023-05-19T13:03:24.674Z,21.69
2023-05-19T13:04:24.642Z,21.75
2023-05-19T13:05:24.906Z,21.76
2023-05-19T13:06:24.878Z,21.74